sensor_id;sensor_type;location;lat;lon;timestamp;pressure;altitude;pressure_sealevel;temperature;humidity
31096;BME280;17749;51.962;8.560;2023-02-21T06:02:37;100293.66;;;7.57;100.00
31096;BME280;17749;51.962;8.560;2023-02-21T06:05:04;100288.41;;;7.55;100.00
31096;BME280;17749;51.962;8.560;2023-02-21T06:07:31;100294.59;;;7.56;100.00
31096;BME280;17749;51.962;8.560;2023-02-21T06:09:58;100285.78;;;7.54;100.00
31096;BME280;17749;51.962;8.560;2023-02-21T06:12:24;100295.56;;;7.52;100.00
31096;BME280;17749;51.962;8.560;2023-02-21T06:14:51;100286.72;;;7.53;100.00
31096;BME280;17749;51.962;8.560;2023-02-21T06:17:18;100290.25;;;7.52;100.00
31096;BME280;17749;51.962;8.560;2023-02-21T06:19:45;100286.72;;;7.53;100.00
31096;BME280;17749;51.962;8.560;2023-02-21T06:22:12;100289.28;;;7.56;100.00
31096;BME280;17749;51.962;8.560;2023-02-21T06:24:39;100295.44;;;7.58;100.00
31096;BME280;17749;51.962;8.560;2023-02-21T06:27:06;100291.84;;;7.59;100.00
31096;BME280;17749;51.962;8.560;2023-02-21T06:29:33;100282.25;;;7.55;100.00
31096;BME280;17749;51.962;8.560;2023-02-21T06:32:00;100285.78;;;7.55;100.00
31096;BME280;17749;51.962;8.560;2023-02-21T06:34:27;100293.75;;;7.54;100.00
31096;BME280;17749;51.962;8.560;2023-02-21T06:36:54;100292.88;;;7.53;100.00
31096;BME280;17749;51.962;8.560;2023-02-21T06:39:22;100295.44;;;7.56;100.00
31096;BME280;17749;51.962;8.560;2023-02-21T06:41:49;100293.75;;;7.54;100.00
31096;BME280;17749;51.962;8.560;2023-02-21T06:44:16;100293.81;;;7.52;100.00
31096;BME280;17749;51.962;8.560;2023-02-21T06:46:43;100304.25;;;7.57;100.00
31096;BME280;17749;51.962;8.560;2023-02-21T06:49:10;100299.88;;;7.56;100.00
31096;BME280;17749;51.962;8.560;2023-02-21T06:51:40;100306.03;;;7.58;100.00
31096;BME280;17749;51.962;8.560;2023-02-21T06:54:09;100308.63;;;7.59;100.00
31096;BME280;17749;51.962;8.560;2023-02-21T06:56:36;100311.25;;;7.61;100.00
31096;BME280;17749;51.962;8.560;2023-02-21T06:59:03;100315.59;;;7.63;100.00
31096;BME280;17749;51.962;8.560;2023-02-21T07:01:31;100319.28;;;7.58;100.00
31096;BME280;17749;51.962;8.560;2023-02-21T07:03:58;100317.47;;;7.60;100.00
31096;BME280;17749;51.962;8.560;2023-02-21T07:06:25;100316.72;;;7.55;100.00
31096;BME280;17749;51.962;8.560;2023-02-21T07:08:55;100320.16;;;7.57;100.00
31096;BME280;17749;51.962;8.560;2023-02-21T07:11:22;100320.84;;;7.65;100.00
31096;BME280;17749;51.962;8.560;2023-02-21T07:13:51;100325.34;;;7.63;100.00
31096;BME280;17749;51.962;8.560;2023-02-21T07:16:19;100325.25;;;7.66;100.00
31096;BME280;17749;51.962;8.560;2023-02-21T07:18:46;100325.25;;;7.66;100.00
31096;BME280;17749;51.962;8.560;2023-02-21T07:21:14;100324.50;;;7.61;100.00
31096;BME280;17749;51.962;8.560;2023-02-21T07:23:43;100322.75;;;7.60;100.00
31096;BME280;17749;51.962;8.560;2023-02-21T07:26:11;100326.19;;;7.63;100.00
31096;BME280;17749;51.962;8.560;2023-02-21T07:28:38;100332.28;;;7.67;100.00
31096;BME280;17749;51.962;8.560;2023-02-21T07:31:06;100323.44;;;7.68;100.00
31096;BME280;17749;51.962;8.560;2023-02-21T07:33:33;100336.63;;;7.71;100.00
31096;BME280;17749;51.962;8.560;2023-02-21T07:36:00;100333.03;;;7.72;100.00
31096;BME280;17749;51.962;8.560;2023-02-21T07:38:29;100334.06;;;7.68;100.00
31096;BME280;17749;51.962;8.560;2023-02-21T07:40:58;100335.78;;;7.69;100.00
31096;BME280;17749;51.962;8.560;2023-02-21T07:43:26;100343.66;;;7.72;100.00
31096;BME280;17749;51.962;8.560;2023-02-21T07:45:54;100343.56;;;7.75;100.00
31096;BME280;17749;51.962;8.560;2023-02-21T07:48:21;100341.09;;;7.69;100.00
31096;BME280;17749;51.962;8.560;2023-02-21T07:50:48;100356.91;;;7.72;100.00
31096;BME280;17749;51.962;8.560;2023-02-21T07:53:16;100348.94;;;7.74;100.00
31096;BME280;17749;51.962;8.560;2023-02-21T07:55:43;100349.03;;;7.69;100.00
31096;BME280;17749;51.962;8.560;2023-02-21T07:58:10;100351.69;;;7.69;100.00
31096;BME280;17749;51.962;8.560;2023-02-21T08:00:37;100358.72;;;7.70;100.00
31096;BME280;17749;51.962;8.560;2023-02-21T08:03:06;100361.38;;;7.70;100.00
31096;BME280;17749;51.962;8.560;2023-02-21T08:05:34;100369.19;;;7.76;100.00
31096;BME280;17749;51.962;8.560;2023-02-21T08:08:01;100372.69;;;7.78;100.00
31096;BME280;17749;51.962;8.560;2023-02-21T08:10:28;100370.06;;;7.77;100.00
31096;BME280;17749;51.962;8.560;2023-02-21T08:12:55;100368.34;;;7.74;100.00
31096;BME280;17749;51.962;8.560;2023-02-21T08:15:22;100371.84;;;7.76;100.00
31096;BME280;17749;51.962;8.560;2023-02-21T08:17:49;100376.97;;;7.82;100.00
31096;BME280;17749;51.962;8.560;2023-02-21T08:20:19;100386.69;;;7.83;100.00
31096;BME280;17749;51.962;8.560;2023-02-21T08:22:46;100384.00;;;7.85;100.00
31096;BME280;17749;51.962;8.560;2023-02-21T08:25:17;100383.22;;;7.81;100.00
31096;BME280;17749;51.962;8.560;2023-02-21T08:27:44;100377.03;;;7.81;100.00
31096;BME280;17749;51.962;8.560;2023-02-21T08:30:13;100375.19;;;7.83;100.00
31096;BME280;17749;51.962;8.560;2023-02-21T08:33:07;100386.81;;;7.79;100.00
31096;BME280;17749;51.962;8.560;2023-02-21T08:35:34;100387.66;;;7.81;100.00
31096;BME280;17749;51.962;8.560;2023-02-21T08:38:02;100382.25;;;7.84;100.00
31096;BME280;17749;51.962;8.560;2023-02-21T08:40:30;100380.66;;;7.77;100.00
31096;BME280;17749;51.962;8.560;2023-02-21T08:42:59;100392.00;;;7.83;100.00
31096;BME280;17749;51.962;8.560;2023-02-21T08:45:28;100377.91;;;7.81;100.00
31096;BME280;17749;51.962;8.560;2023-02-21T08:47:56;100386.63;;;7.86;100.00
31096;BME280;17749;51.962;8.560;2023-02-21T08:50:25;100384.84;;;7.85;100.00
31096;BME280;17749;51.962;8.560;2023-02-21T08:52:54;100383.06;;;7.87;100.00
31096;BME280;17749;51.962;8.560;2023-02-21T08:55:21;100390.09;;;7.88;100.00
31096;BME280;17749;51.962;8.560;2023-02-21T08:57:51;100387.44;;;7.88;100.00
31096;BME280;17749;51.962;8.560;2023-02-21T09:00:20;100387.50;;;7.85;100.00
31096;BME280;17749;51.962;8.560;2023-02-21T09:02:52;100388.50;;;7.81;100.00
31096;BME280;17749;51.962;8.560;2023-02-21T09:05:22;100395.38;;;7.88;100.00
31096;BME280;17749;51.962;8.560;2023-02-21T09:07:50;100391.16;;;7.81;100.00
31096;BME280;17749;51.962;8.560;2023-02-21T09:10:20;100399.03;;;7.84;100.00
31096;BME280;17749;51.962;8.560;2023-02-21T09:12:47;100400.66;;;7.92;100.00
31096;BME280;17749;51.962;8.560;2023-02-21T09:15:15;100395.25;;;7.95;100.00
31096;BME280;17749;51.962;8.560;2023-02-21T09:17:43;100396.00;;;8.00;100.00
31096;BME280;17749;51.962;8.560;2023-02-21T09:20:13;100382.75;;;8.00;100.00
31096;BME280;17749;51.962;8.560;2023-02-21T09:22:55;100382.66;;;8.04;100.00
31096;BME280;17749;51.962;8.560;2023-02-21T09:25:23;100389.72;;;8.04;100.00
31096;BME280;17749;51.962;8.560;2023-02-21T09:27:51;100385.31;;;8.03;100.00
31096;BME280;17749;51.962;8.560;2023-02-21T09:30:22;100388.09;;;7.98;100.00
31096;BME280;17749;51.962;8.560;2023-02-21T09:32:52;100392.34;;;8.04;100.00
31096;BME280;17749;51.962;8.560;2023-02-21T09:35:21;100396.78;;;8.05;100.00
31096;BME280;17749;51.962;8.560;2023-02-21T09:37:48;100394.97;;;8.07;100.00
31096;BME280;17749;51.962;8.560;2023-02-21T09:42:52;100400.41;;;8.01;100.00
31096;BME280;17749;51.962;8.560;2023-02-21T09:45:20;100403.88;;;8.04;100.00
31096;BME280;17749;51.962;8.560;2023-02-21T09:47:53;100405.56;;;8.07;100.00
31096;BME280;17749;51.962;8.560;2023-02-21T09:50:26;100401.88;;;8.12;100.00
31096;BME280;17749;51.962;8.560;2023-02-21T09:52:57;100402.69;;;8.15;100.00
31096;BME280;17749;51.962;8.560;2023-02-21T09:55:34;100401.06;;;8.10;100.00
31096;BME280;17749;51.962;8.560;2023-02-21T09:58:02;100389.66;;;8.07;100.00
31096;BME280;17749;51.962;8.560;2023-02-21T10:00:34;100400.19;;;8.10;100.00
31096;BME280;17749;51.962;8.560;2023-02-21T10:03:51;100392.97;;;8.15;100.00
31096;BME280;17749;51.962;8.560;2023-02-21T10:08:42;100405.25;;;8.19;100.00
31096;BME280;17749;51.962;8.560;2023-02-21T10:14:14;100393.13;;;8.09;100.00
31096;BME280;17749;51.962;8.560;2023-02-21T10:16:52;100399.19;;;8.14;100.00
31096;BME280;17749;51.962;8.560;2023-02-21T10:19:30;100401.72;;;8.19;100.00
31096;BME280;17749;51.962;8.560;2023-02-21T10:22:00;100403.59;;;8.15;100.00
31096;BME280;17749;51.962;8.560;2023-02-21T10:24:29;100403.44;;;8.20;100.00
31096;BME280;17749;51.962;8.560;2023-02-21T10:27:08;100401.69;;;8.20;100.00
31096;BME280;17749;51.962;8.560;2023-02-21T10:32:30;100394.53;;;8.22;100.00
31096;BME280;17749;51.962;8.560;2023-02-21T10:34:58;100404.28;;;8.22;100.00
31096;BME280;17749;51.962;8.560;2023-02-21T10:40:03;100397.94;;;8.27;100.00
31096;BME280;17749;51.962;8.560;2023-02-21T10:42:42;100401.34;;;8.32;100.00
31096;BME280;17749;51.962;8.560;2023-02-21T10:45:10;100402.16;;;8.36;100.00
31096;BME280;17749;51.962;8.560;2023-02-21T10:47:50;100401.28;;;8.35;100.00
31096;BME280;17749;51.962;8.560;2023-02-21T10:50:37;100398.56;;;8.39;100.00
31096;BME280;17749;51.962;8.560;2023-02-21T10:53:05;100395.78;;;8.45;100.00
31096;BME280;17749;51.962;8.560;2023-02-21T10:55:33;100393.03;;;8.48;100.00
31096;BME280;17749;51.962;8.560;2023-02-21T10:58:17;100391.19;;;8.51;100.00
31096;BME280;17749;51.962;8.560;2023-02-21T11:00:45;100407.97;;;8.52;100.00
31096;BME280;17749;51.962;8.560;2023-02-21T11:05:50;100394.69;;;8.52;100.00
31096;BME280;17749;51.962;8.560;2023-02-21T11:08:35;100388.38;;;8.56;100.00
31096;BME280;17749;51.962;8.560;2023-02-21T11:11:03;100399.09;;;8.53;100.00
31096;BME280;17749;51.962;8.560;2023-02-21T11:13:31;100391.00;;;8.58;100.00
31096;BME280;17749;51.962;8.560;2023-02-21T11:16:15;100392.78;;;8.57;100.00
31096;BME280;17749;51.962;8.560;2023-02-21T11:18:43;100380.38;;;8.58;100.00
31096;BME280;17749;51.962;8.560;2023-02-21T11:21:16;100382.31;;;8.51;100.00
31096;BME280;17749;51.962;8.560;2023-02-21T11:23:53;100384.19;;;8.47;100.00
31096;BME280;17749;51.962;8.560;2023-02-21T11:26:38;100382.50;;;8.45;100.00
31096;BME280;17749;51.962;8.560;2023-02-21T11:29:17;100387.84;;;8.43;100.00
31096;BME280;17749;51.962;8.560;2023-02-21T11:31:47;100387.63;;;8.51;100.00
31096;BME280;17749;51.962;8.560;2023-02-21T11:34:14;100384.16;;;8.49;100.00
31096;BME280;17749;51.962;8.560;2023-02-21T11:36:44;100376.25;;;8.46;100.00
31096;BME280;17749;51.962;8.560;2023-02-21T11:39:17;100383.47;;;8.41;100.00
31096;BME280;17749;51.962;8.560;2023-02-21T11:42:00;100372.75;;;8.45;100.00
31096;BME280;17749;51.962;8.560;2023-02-21T11:44:34;100384.19;;;8.47;100.00
31096;BME280;17749;51.962;8.560;2023-02-21T11:50:12;100380.59;;;8.50;100.00
31096;BME280;17749;51.962;8.560;2023-02-21T11:52:55;100373.50;;;8.50;100.00
31096;BME280;17749;51.962;8.560;2023-02-21T11:55:25;100371.75;;;8.49;100.00
31096;BME280;17749;51.962;8.560;2023-02-21T11:57:54;100372.53;;;8.53;100.00
31096;BME280;17749;51.962;8.560;2023-02-21T12:00:34;100372.53;;;8.53;100.00
31096;BME280;17749;51.962;8.560;2023-02-21T12:06:04;100364.56;;;8.54;100.00
31096;BME280;17749;51.962;8.560;2023-02-21T12:08:39;100372.44;;;8.56;100.00
31096;BME280;17749;51.962;8.560;2023-02-21T12:13:52;100364.41;;;8.59;100.00
31096;BME280;17749;51.962;8.560;2023-02-21T12:31:06;100356.53;;;8.56;100.00
31096;BME280;17749;51.962;8.560;2023-02-21T12:36:34;100359.16;;;8.58;100.00
31096;BME280;17749;51.962;8.560;2023-02-21T12:39:23;100347.56;;;8.60;100.00
31096;BME280;17749;51.962;8.560;2023-02-21T12:42:15;100351.06;;;8.62;100.00
31096;BME280;17749;51.962;8.560;2023-02-21T12:47:41;100338.75;;;8.60;100.00
31096;BME280;17749;51.962;8.560;2023-02-21T12:50:17;100337.03;;;8.57;100.00
31096;BME280;17749;51.962;8.560;2023-02-21T12:53:06;100345.22;;;8.49;100.00
31096;BME280;17749;51.962;8.560;2023-02-21T12:55:46;100335.50;;;8.48;100.00
31096;BME280;17749;51.962;8.560;2023-02-21T12:58:53;100332.72;;;8.53;100.00
31096;BME280;17749;51.962;8.560;2023-02-21T13:01:28;100335.19;;;8.59;100.00
31096;BME280;17749;51.962;8.560;2023-02-21T13:06:41;100335.13;;;8.62;100.00
31096;BME280;17749;51.962;8.560;2023-02-21T13:09:24;100327.16;;;8.62;100.00
31096;BME280;17749;51.962;8.560;2023-02-21T13:12:08;100328.91;;;8.63;100.00
31096;BME280;17749;51.962;8.560;2023-02-21T13:14:44;100330.63;;;8.64;100.00
31096;BME280;17749;51.962;8.560;2023-02-21T13:17:14;100329.72;;;8.65;100.00
31096;BME280;17749;51.962;8.560;2023-02-21T13:19:51;100327.00;;;8.67;100.00
31096;BME280;17749;51.962;8.560;2023-02-21T13:26:38;100319.22;;;8.62;100.00
31096;BME280;17749;51.962;8.560;2023-02-21T13:32:01;100312.22;;;8.58;100.00
31096;BME280;17749;51.962;8.560;2023-02-21T13:34:34;100310.63;;;8.52;100.00
31096;BME280;17749;51.962;8.560;2023-02-21T13:37:06;100310.56;;;8.54;100.00
31096;BME280;17749;51.962;8.560;2023-02-21T13:39:35;100308.81;;;8.54;100.00
31096;BME280;17749;51.962;8.560;2023-02-21T13:42:07;100297.25;;;8.55;100.00
31096;BME280;17749;51.962;8.560;2023-02-21T13:44:47;100298.03;;;8.59;100.00
31096;BME280;17749;51.962;8.560;2023-02-21T13:47:17;100296.13;;;8.64;100.00
31096;BME280;17749;51.962;8.560;2023-02-21T13:49:58;100302.25;;;8.66;100.00
31096;BME280;17749;51.962;8.560;2023-02-21T14:03:00;100300.44;;;8.68;100.00
31096;BME280;17749;51.962;8.560;2023-02-21T14:08:26;100300.75;;;8.58;100.00
31096;BME280;17749;51.962;8.560;2023-02-21T14:13:50;100300.03;;;8.51;100.00
31096;BME280;17749;51.962;8.560;2023-02-21T14:17:12;100289.38;;;8.52;100.00
31096;BME280;17749;51.962;8.560;2023-02-21T14:19:47;100293.78;;;8.53;100.00
31096;BME280;17749;51.962;8.560;2023-02-21T14:22:22;100293.75;;;8.55;100.00
31096;BME280;17749;51.962;8.560;2023-02-21T14:25:02;100292.81;;;8.56;100.00
31096;BME280;17749;51.962;8.560;2023-02-21T14:27:32;100293.00;;;8.50;100.00
31096;BME280;17749;51.962;8.560;2023-02-21T14:32:46;100289.50;;;8.48;100.00
31096;BME280;17749;51.962;8.560;2023-02-21T14:35:44;100288.75;;;8.44;100.00
31096;BME280;17749;51.962;8.560;2023-02-21T14:38:21;100285.97;;;8.49;100.00
31096;BME280;17749;51.962;8.560;2023-02-21T14:43:57;100284.09;;;8.52;100.00
31096;BME280;17749;51.962;8.560;2023-02-21T14:46:54;100280.56;;;8.52;100.00
31096;BME280;17749;51.962;8.560;2023-02-21T15:03:46;100293.94;;;8.49;100.00
31096;BME280;17749;51.962;8.560;2023-02-21T15:06:19;100286.84;;;8.48;100.00
31096;BME280;17749;51.962;8.560;2023-02-21T15:08:50;100286.84;;;8.48;100.00
31096;BME280;17749;51.962;8.560;2023-02-21T15:11:22;100278.91;;;8.48;100.00
31096;BME280;17749;51.962;8.560;2023-02-21T15:14:21;100283.31;;;8.49;100.00
31096;BME280;17749;51.962;8.560;2023-02-21T15:19:23;100285.88;;;8.52;100.00
31096;BME280;17749;51.962;8.560;2023-02-21T15:22:16;100285.06;;;8.48;100.00
31096;BME280;17749;51.962;8.560;2023-02-21T15:25:19;100285.97;;;8.49;100.00
31096;BME280;17749;51.962;8.560;2023-02-21T15:32:43;100285.22;;;8.44;100.00
31096;BME280;17749;51.962;8.560;2023-02-21T15:35:17;100279.91;;;8.44;100.00
31096;BME280;17749;51.962;8.560;2023-02-21T15:37:48;100287.78;;;8.47;100.00
31096;BME280;17749;51.962;8.560;2023-02-21T15:40:20;100281.63;;;8.46;100.00
31096;BME280;17749;51.962;8.560;2023-02-21T15:42:50;100285.97;;;8.49;100.00
31096;BME280;17749;51.962;8.560;2023-02-21T15:45:25;100280.66;;;8.49;100.00
31096;BME280;17749;51.962;8.560;2023-02-21T15:47:55;100282.38;;;8.50;100.00
31096;BME280;17749;51.962;8.560;2023-02-21T15:50:28;100284.19;;;8.49;100.00
31096;BME280;17749;51.962;8.560;2023-02-21T15:53:09;100275.38;;;8.47;100.00
31096;BME280;17749;51.962;8.560;2023-02-21T15:55:36;100279.81;;;8.47;100.00
31096;BME280;17749;51.962;8.560;2023-02-21T16:00:34;100289.50;;;8.48;100.00
31096;BME280;17749;51.962;8.560;2023-02-21T16:09:06;100286.97;;;8.43;100.00
31096;BME280;17749;51.962;8.560;2023-02-21T16:14:43;100287.03;;;8.42;100.00
31096;BME280;17749;51.962;8.560;2023-02-21T16:17:40;100281.81;;;8.39;100.00
31096;BME280;17749;51.962;8.560;2023-02-21T16:22:39;100280.03;;;8.39;100.00
31096;BME280;17749;51.962;8.560;2023-02-21T16:25:27;100285.34;;;8.39;100.00
31096;BME280;17749;51.962;8.560;2023-02-21T16:27:56;100277.38;;;8.39;100.00
31096;BME280;17749;51.962;8.560;2023-02-21T16:30:28;100277.38;;;8.38;100.00
31096;BME280;17749;51.962;8.560;2023-02-21T16:33:00;100274.72;;;8.38;100.00
31096;BME280;17749;51.962;8.560;2023-02-21T16:35:28;100278.31;;;8.37;100.00
31096;BME280;17749;51.962;8.560;2023-02-21T16:37:57;100276.53;;;8.37;100.00
31096;BME280;17749;51.962;8.560;2023-02-21T16:40:34;100270.34;;;8.37;100.00
31096;BME280;17749;51.962;8.560;2023-02-21T16:43:03;100271.19;;;8.39;100.00
31096;BME280;17749;51.962;8.560;2023-02-21T16:45:31;100274.78;;;8.36;100.00
31096;BME280;17749;51.962;8.560;2023-02-21T16:48:00;100278.34;;;8.35;100.00
31096;BME280;17749;51.962;8.560;2023-02-21T16:50:31;100277.56;;;8.31;100.00
31096;BME280;17749;51.962;8.560;2023-02-21T16:52:59;100279.38;;;8.29;100.00
31096;BME280;17749;51.962;8.560;2023-02-21T16:55:27;100281.13;;;8.30;100.00
31096;BME280;17749;51.962;8.560;2023-02-21T16:58:10;100278.47;;;8.30;100.00
31096;BME280;17749;51.962;8.560;2023-02-21T17:00:41;100280.22;;;8.31;100.00
31096;BME280;17749;51.962;8.560;2023-02-21T17:03:08;100284.59;;;8.32;100.00
31096;BME280;17749;51.962;8.560;2023-02-21T17:05:35;100283.75;;;8.30;100.00
31096;BME280;17749;51.962;8.560;2023-02-21T17:08:02;100283.84;;;8.29;100.00
31096;BME280;17749;51.962;8.560;2023-02-21T17:10:29;100274.06;;;8.29;100.00
31096;BME280;17749;51.962;8.560;2023-02-21T17:12:58;100281.94;;;8.32;100.00
31096;BME280;17749;51.962;8.560;2023-02-21T17:15:27;100284.66;;;8.31;100.00
31096;BME280;17749;51.962;8.560;2023-02-21T17:17:54;100273.25;;;8.27;100.00
31096;BME280;17749;51.962;8.560;2023-02-21T17:20:21;100275.03;;;8.27;100.00
31096;BME280;17749;51.962;8.560;2023-02-21T17:22:49;100282.97;;;8.28;100.00
31096;BME280;17749;51.962;8.560;2023-02-21T17:25:18;100282.97;;;8.28;100.00
31096;BME280;17749;51.962;8.560;2023-02-21T17:27:45;100278.56;;;8.27;100.00
31096;BME280;17749;51.962;8.560;2023-02-21T17:30:12;100286.50;;;8.27;100.00
31096;BME280;17749;51.962;8.560;2023-02-21T17:32:40;100288.38;;;8.25;100.00
31096;BME280;17749;51.962;8.560;2023-02-21T17:35:07;100283.91;;;8.26;100.00
31096;BME280;17749;51.962;8.560;2023-02-21T17:37:34;100281.22;;;8.27;100.00
31096;BME280;17749;51.962;8.560;2023-02-21T17:40:02;100282.09;;;8.28;100.00
31096;BME280;17749;51.962;8.560;2023-02-21T17:42:29;100286.50;;;8.27;100.00
31096;BME280;17749;51.962;8.560;2023-02-21T17:44:56;100284.75;;;8.28;100.00
31096;BME280;17749;51.962;8.560;2023-02-21T17:47:24;100287.41;;;8.28;100.00
31096;BME280;17749;51.962;8.560;2023-02-21T17:49:51;100286.50;;;8.27;100.00
31096;BME280;17749;51.962;8.560;2023-02-21T17:52:20;100284.78;;;8.26;100.00
31096;BME280;17749;51.962;8.560;2023-02-21T17:54:47;100284.78;;;8.26;100.00
31096;BME280;17749;51.962;8.560;2023-02-21T17:57:14;100284.78;;;8.26;100.00
31096;BME280;17749;51.962;8.560;2023-02-21T17:59:42;100283.94;;;8.24;100.00
31096;BME280;17749;51.962;8.560;2023-02-21T18:02:11;100283.94;;;8.24;100.00
31096;BME280;17749;51.962;8.560;2023-02-21T18:04:39;100288.38;;;8.25;100.00
31096;BME280;17749;51.962;8.560;2023-02-21T18:07:06;100288.38;;;8.25;100.00
31096;BME280;17749;51.962;8.560;2023-02-21T18:09:37;100289.16;;;8.27;100.00
31096;BME280;17749;51.962;8.560;2023-02-21T18:12:04;100295.31;;;8.29;100.00
31096;BME280;17749;51.962;8.560;2023-02-21T18:14:31;100288.28;;;8.28;100.00
31096;BME280;17749;51.962;8.560;2023-02-21T18:16:58;100291.72;;;8.30;100.00
31096;BME280;17749;51.962;8.560;2023-02-21T18:19:25;100295.31;;;8.29;100.00
31096;BME280;17749;51.962;8.560;2023-02-21T18:21:52;100290.88;;;8.30;100.00
31096;BME280;17749;51.962;8.560;2023-02-21T18:24:19;100295.31;;;8.29;100.00
31096;BME280;17749;51.962;8.560;2023-02-21T18:26:48;100289.91;;;8.32;100.00
31096;BME280;17749;51.962;8.560;2023-02-21T18:29:15;100297.88;;;8.32;100.00
31096;BME280;17749;51.962;8.560;2023-02-21T18:31:42;100289.91;;;8.32;100.00
31096;BME280;17749;51.962;8.560;2023-02-21T18:34:09;100285.56;;;8.30;100.00
31096;BME280;17749;51.962;8.560;2023-02-21T18:36:36;100287.31;;;8.31;100.00
31096;BME280;17749;51.962;8.560;2023-02-21T18:39:06;100285.56;;;8.30;100.00
31096;BME280;17749;51.962;8.560;2023-02-21T18:41:33;100286.47;;;8.29;100.00
31096;BME280;17749;51.962;8.560;2023-02-21T18:44:00;100277.66;;;8.28;100.00
31096;BME280;17749;51.962;8.560;2023-02-21T18:46:27;100282.97;;;8.28;100.00
31096;BME280;17749;51.962;8.560;2023-02-21T18:48:54;100275.91;;;8.27;100.00
31096;BME280;17749;51.962;8.560;2023-02-21T18:51:21;100286.50;;;8.27;100.00
31096;BME280;17749;51.962;8.560;2023-02-21T18:53:48;100288.28;;;8.28;100.00
31096;BME280;17749;51.962;8.560;2023-02-21T18:56:18;100293.56;;;8.28;100.00
31096;BME280;17749;51.962;8.560;2023-02-21T18:58:46;100287.34;;;8.29;100.00
31096;BME280;17749;51.962;8.560;2023-02-21T19:01:15;100283.75;;;8.30;100.00
31096;BME280;17749;51.962;8.560;2023-02-21T19:03:44;100282.03;;;8.29;100.00
31096;BME280;17749;51.962;8.560;2023-02-21T19:06:13;100280.25;;;8.30;100.00
31096;BME280;17749;51.962;8.560;2023-02-21T19:08:41;100274.06;;;8.29;100.00
31096;BME280;17749;51.962;8.560;2023-02-21T19:11:08;100282.03;;;8.29;100.00
31096;BME280;17749;51.962;8.560;2023-02-21T19:13:35;100279.38;;;8.29;100.00
31096;BME280;17749;51.962;8.560;2023-02-21T19:16:02;100267.94;;;8.27;100.00
31096;BME280;17749;51.962;8.560;2023-02-21T19:18:29;100276.72;;;8.29;100.00
31096;BME280;17749;51.962;8.560;2023-02-21T19:20:56;100272.34;;;8.28;100.00
31096;BME280;17749;51.962;8.560;2023-02-21T19:23:23;100273.25;;;8.27;100.00
31096;BME280;17749;51.962;8.560;2023-02-21T19:25:54;100272.38;;;8.27;100.00
31096;BME280;17749;51.962;8.560;2023-02-21T19:28:21;100272.38;;;8.27;100.00
31096;BME280;17749;51.962;8.560;2023-02-21T19:30:49;100271.50;;;8.28;100.00
31096;BME280;17749;51.962;8.560;2023-02-21T19:33:16;100267.03;;;8.28;100.00
31096;BME280;17749;51.962;8.560;2023-02-21T19:35:43;100271.44;;;8.29;100.00
31096;BME280;17749;51.962;8.560;2023-02-21T19:38:12;100265.28;;;8.27;100.00
31096;BME280;17749;51.962;8.560;2023-02-21T19:40:41;100263.56;;;8.26;100.00
31096;BME280;17749;51.962;8.560;2023-02-21T19:43:08;100261.84;;;8.24;100.00
31096;BME280;17749;51.962;8.560;2023-02-21T19:45:35;100257.41;;;8.24;100.00
31096;BME280;17749;51.962;8.560;2023-02-21T19:48:01;100257.41;;;8.24;100.00
31096;BME280;17749;51.962;8.560;2023-02-21T19:50:28;100255.69;;;8.23;100.00
31096;BME280;17749;51.962;8.560;2023-02-21T19:53:00;100254.75;;;8.24;100.00
31096;BME280;17749;51.962;8.560;2023-02-21T19:55:28;100261.88;;;8.22;100.00
31096;BME280;17749;51.962;8.560;2023-02-21T19:57:56;100261.00;;;8.23;100.00
31096;BME280;17749;51.962;8.560;2023-02-21T20:00:23;100250.38;;;8.23;100.00
31096;BME280;17749;51.962;8.560;2023-02-21T20:02:52;100251.28;;;8.22;100.00
31096;BME280;17749;51.962;8.560;2023-02-21T20:05:19;100253.13;;;8.20;100.00
31096;BME280;17749;51.962;8.560;2023-02-21T20:07:46;100255.03;;;8.15;100.00
31096;BME280;17749;51.962;8.560;2023-02-21T20:10:13;100254.31;;;8.08;100.00
31096;BME280;17749;51.962;8.560;2023-02-21T20:12:43;100259.09;;;7.96;100.00
31096;BME280;17749;51.962;8.560;2023-02-21T20:15:10;100263.56;;;7.94;100.00
31096;BME280;17749;51.962;8.560;2023-02-21T20:17:37;100253.78;;;7.96;100.00
31096;BME280;17749;51.962;8.560;2023-02-21T20:20:05;100264.31;;;7.99;100.00
31096;BME280;17749;51.962;8.560;2023-02-21T20:22:38;100260.75;;;8.00;100.00
31096;BME280;17749;51.962;8.560;2023-02-21T20:25:05;100252.75;;;8.01;100.00
31096;BME280;17749;51.962;8.560;2023-02-21T20:27:33;100251.78;;;8.04;100.00
31096;BME280;17749;51.962;8.560;2023-02-21T20:30:00;100250.91;;;8.05;100.00
31096;BME280;17749;51.962;8.560;2023-02-21T20:32:27;100249.94;;;8.07;100.00
31096;BME280;17749;51.962;8.560;2023-02-21T20:34:56;100249.03;;;8.08;100.00
31096;BME280;17749;51.962;8.560;2023-02-21T20:37:23;100255.19;;;8.09;100.00
31096;BME280;17749;51.962;8.560;2023-02-21T20:39:52;100255.19;;;8.09;100.00
31096;BME280;17749;51.962;8.560;2023-02-21T20:42:18;100250.75;;;8.09;100.00
31096;BME280;17749;51.962;8.560;2023-02-21T20:44:48;100257.81;;;8.10;100.00
31096;BME280;17749;51.962;8.560;2023-02-21T20:47:15;100249.78;;;8.12;100.00
31096;BME280;17749;51.962;8.560;2023-02-21T20:49:43;100251.63;;;8.10;100.00
31096;BME280;17749;51.962;8.560;2023-02-21T20:52:11;100248.06;;;8.11;100.00
31096;BME280;17749;51.962;8.560;2023-02-21T20:54:40;100246.34;;;8.10;100.00
31096;BME280;17749;51.962;8.560;2023-02-21T20:57:07;100240.09;;;8.11;100.00
31096;BME280;17749;51.962;8.560;2023-02-21T20:59:37;100242.75;;;8.11;100.00
31096;BME280;17749;51.962;8.560;2023-02-21T21:02:04;100237.38;;;8.14;100.00
31096;BME280;17749;51.962;8.560;2023-02-21T21:04:34;100239.16;;;8.13;100.00